createdAt,value
2019-01-24T00:02:12.982Z,28.50
2019-01-24T00:04:42.941Z,27.43
2019-01-24T00:07:12.645Z,30.15
2019-01-24T00:09:42.666Z,28.67
2019-01-24T00:12:12.425Z,29.77
2019-01-24T00:14:42.167Z,28.63
2019-01-24T00:17:12.200Z,29.95
2019-01-24T00:19:41.858Z,28.53
2019-01-24T00:22:11.801Z,27.67
2019-01-24T00:24:41.474Z,29.00
2019-01-24T00:27:11.487Z,26.15
2019-01-24T00:29:41.769Z,28.53
2019-01-24T00:32:11.797Z,27.67
2019-01-24T00:34:41.475Z,28.07
2019-01-24T00:37:11.505Z,28.57
2019-01-24T00:39:41.523Z,29.83
2019-01-24T00:42:11.207Z,26.90
2019-01-24T00:44:40.947Z,27.67
2019-01-24T00:47:10.648Z,28.87
2019-01-24T00:49:40.323Z,26.37
2019-01-24T00:52:10.076Z,26.87
2019-01-24T00:54:39.747Z,28.23
2019-01-24T00:57:09.538Z,26.73
2019-01-24T00:59:39.203Z,28.03
2019-01-24T01:02:09.002Z,25.57
2019-01-24T01:04:38.726Z,27.85
2019-01-24T01:07:08.416Z,26.30
2019-01-24T01:09:39.042Z,28.77
2019-01-24T01:12:09.161Z,25.67
2019-01-24T01:14:38.923Z,25.02
2019-01-24T01:17:08.662Z,28.77
2019-01-24T01:19:38.400Z,27.87
2019-01-24T01:22:08.502Z,27.50
2019-01-24T01:24:38.264Z,25.60
2019-01-24T01:27:08.017Z,26.47
2019-01-24T01:29:37.711Z,28.00
2019-01-24T01:32:07.746Z,27.30
2019-01-24T01:34:37.495Z,27.32
2019-01-24T01:37:07.676Z,27.30
2019-01-24T01:39:37.365Z,27.43
2019-01-24T01:42:07.350Z,27.53
2019-01-24T01:44:37.122Z,25.88
2019-01-24T01:47:06.795Z,26.40
2019-01-24T01:49:36.484Z,25.63
2019-01-24T01:52:06.160Z,27.27
2019-01-24T01:54:36.017Z,27.67
2019-01-24T01:57:05.798Z,26.23
2019-01-24T01:59:35.486Z,25.70
2019-01-24T02:02:05.583Z,26.00
2019-01-24T02:04:35.275Z,25.55
2019-01-24T02:07:05.947Z,26.17
2019-01-24T02:09:36.404Z,25.67
2019-01-24T02:12:06.079Z,26.17
2019-01-24T02:14:35.764Z,26.05
2019-01-24T02:17:05.577Z,25.03
2019-01-24T02:19:35.410Z,27.13
2019-01-24T02:22:05.427Z,26.63
2019-01-24T02:24:35.113Z,25.85
2019-01-24T02:27:05.230Z,26.57
2019-01-24T02:29:34.916Z,26.73
2019-01-24T02:32:04.800Z,25.90
2019-01-24T02:34:34.484Z,25.97
2019-01-24T02:37:04.164Z,26.30
2019-01-24T02:39:33.851Z,27.73
2019-01-24T02:42:03.607Z,28.47
2019-01-24T02:44:34.104Z,27.50
2019-01-24T02:47:03.855Z,28.03
2019-01-24T02:49:33.634Z,26.47
2019-01-24T02:52:03.314Z,27.97
2019-01-24T02:54:33.914Z,28.17
2019-01-24T02:57:03.583Z,25.33
2019-01-24T02:59:33.261Z,26.48
2019-01-24T03:02:03.071Z,28.20
2019-01-24T03:04:33.129Z,25.50
2019-01-24T03:07:02.842Z,28.37
2019-01-24T03:09:33.443Z,26.12
2019-01-24T03:12:03.213Z,25.50
2019-01-24T03:14:32.880Z,27.53
2019-01-24T03:17:02.669Z,25.87
2019-01-24T03:19:32.354Z,27.50
2019-01-24T03:22:02.037Z,26.73
2019-01-24T03:24:31.719Z,26.17
2019-01-24T03:27:01.519Z,29.00
2019-01-24T03:29:31.211Z,26.87
2019-01-24T03:32:00.907Z,28.55
2019-01-24T03:34:30.660Z,26.10
2019-01-24T03:37:00.342Z,25.93
2019-01-24T03:39:30.353Z,25.68
2019-01-24T03:42:00.026Z,26.50
2019-01-24T03:44:31.210Z,25.62
2019-01-24T03:47:00.899Z,24.87
2019-01-24T03:49:30.590Z,27.00
2019-01-24T03:52:00.268Z,24.72
2019-01-24T03:54:30.927Z,26.60
2019-01-24T03:57:00.667Z,26.07
2019-01-24T03:59:30.888Z,24.57
2019-01-24T04:02:00.896Z,23.80
2019-01-24T04:04:30.667Z,26.17
2019-01-24T04:07:00.352Z,25.03
2019-01-24T04:09:30.033Z,25.77
2019-01-24T04:12:00.125Z,23.90
2019-01-24T04:14:29.805Z,24.17
2019-01-24T04:16:59.871Z,25.03
2019-01-24T04:19:29.555Z,26.90
2019-01-24T04:22:00.203Z,24.50
2019-01-24T04:24:29.885Z,25.03
2019-01-24T04:26:59.571Z,24.92
2019-01-24T04:29:29.253Z,25.20
2019-01-24T04:31:58.935Z,24.47
2019-01-24T04:34:28.608Z,24.83
2019-01-24T04:36:58.535Z,24.43
2019-01-24T04:39:28.499Z,25.43
2019-01-24T04:41:58.186Z,25.40
2019-01-24T04:44:27.870Z,23.80
2019-01-24T04:46:57.562Z,25.33
2019-01-24T04:49:27.239Z,24.37
2019-01-24T04:51:56.920Z,25.12
2019-01-24T04:54:26.648Z,24.80
2019-01-24T04:56:56.373Z,24.93
2019-01-24T04:59:26.133Z,24.00
2019-01-24T05:01:55.857Z,25.60
2019-01-24T05:04:25.602Z,23.93
2019-01-24T05:06:55.574Z,25.07
2019-01-24T05:09:25.631Z,25.83
2019-01-24T05:11:55.608Z,24.72
2019-01-24T05:14:25.655Z,25.07
2019-01-24T05:16:55.657Z,23.83
2019-01-24T05:19:25.653Z,25.60
2019-01-24T05:21:55.342Z,22.43
2019-01-24T05:24:25.016Z,23.50
2019-01-24T05:26:55.174Z,24.00
2019-01-24T05:29:24.866Z,23.43
2019-01-24T05:31:54.613Z,22.50
2019-01-24T05:34:24.288Z,22.60
2019-01-24T05:36:53.968Z,24.00
2019-01-24T05:39:23.905Z,24.87
2019-01-24T05:41:54.153Z,23.07
2019-01-24T05:44:23.830Z,22.87
2019-01-24T05:46:53.512Z,21.90
2019-01-24T05:49:23.202Z,24.43
2019-01-24T05:51:53.813Z,25.05
2019-01-24T05:54:23.496Z,25.32
2019-01-24T05:56:53.179Z,23.87
2019-01-24T05:59:22.845Z,25.82
2019-01-24T06:01:54.522Z,25.25
2019-01-24T06:04:24.457Z,25.17
2019-01-24T06:06:54.154Z,23.83
2019-01-24T06:09:23.839Z,24.40
2019-01-24T06:11:53.513Z,23.50
2019-01-24T06:14:23.180Z,22.70
2019-01-24T06:16:52.882Z,23.75
2019-01-24T06:19:22.550Z,23.98
2019-01-24T06:21:52.239Z,23.13
2019-01-24T06:24:21.911Z,23.60
2019-01-24T06:26:51.675Z,22.40
2019-01-24T06:29:21.352Z,23.07
2019-01-24T06:31:51.049Z,23.90
2019-01-24T06:34:20.722Z,25.12
2019-01-24T06:36:50.692Z,24.70
2019-01-24T06:39:20.408Z,23.27
2019-01-24T06:41:50.101Z,20.97
2019-01-24T06:44:19.784Z,23.25
2019-01-24T06:46:49.476Z,22.35
2019-01-24T06:49:19.160Z,22.67
2019-01-24T06:51:48.841Z,25.23
2019-01-24T06:54:18.592Z,25.17
2019-01-24T06:56:48.323Z,24.07
2019-01-24T06:59:17.998Z,24.30
2019-01-24T07:01:47.685Z,21.97
2019-01-24T07:04:17.801Z,23.77
2019-01-24T07:06:47.741Z,24.02
2019-01-24T07:09:17.548Z,23.80
2019-01-24T07:11:47.228Z,26.37
2019-01-24T07:14:16.900Z,23.03
2019-01-24T07:16:46.962Z,24.13
2019-01-24T07:19:16.650Z,24.10
2019-01-24T07:21:46.361Z,23.50
2019-01-24T07:24:16.117Z,23.57
2019-01-24T07:26:45.806Z,23.50
2019-01-24T07:29:15.806Z,23.40
2019-01-24T07:31:45.825Z,24.33
2019-01-24T07:34:15.676Z,23.02
2019-01-24T07:36:45.369Z,24.97
2019-01-24T07:39:15.870Z,22.70
2019-01-24T07:41:45.888Z,24.30
2019-01-24T07:44:15.565Z,23.77
2019-01-24T07:46:45.251Z,23.53
2019-01-24T07:49:15.961Z,23.83
2019-01-24T07:51:46.719Z,22.67
2019-01-24T07:54:16.396Z,23.03
2019-01-24T07:56:46.130Z,23.63
2019-01-24T07:59:15.799Z,23.70
2019-01-24T08:01:45.493Z,23.90
2019-01-24T08:04:15.176Z,21.87
2019-01-24T08:06:45.108Z,23.37
2019-01-24T08:09:14.861Z,23.60
2019-01-24T08:11:44.620Z,23.40
2019-01-24T08:14:14.299Z,23.70
2019-01-24T08:16:44.063Z,23.67
2019-01-24T08:19:13.739Z,22.00
2019-01-24T08:21:43.412Z,22.30
2019-01-24T08:24:13.092Z,23.43
2019-01-24T08:26:42.779Z,21.87
2019-01-24T08:29:12.470Z,22.30
2019-01-24T08:31:42.154Z,24.23
2019-01-24T08:34:11.833Z,22.93
2019-01-24T08:36:41.538Z,22.47
2019-01-24T08:39:11.336Z,23.43
2019-01-24T08:41:41.021Z,23.07
2019-01-24T08:44:10.718Z,22.07
2019-01-24T08:46:40.424Z,23.87
2019-01-24T08:49:10.434Z,21.70
2019-01-24T08:51:40.143Z,24.33
2019-01-24T08:54:09.796Z,22.60
2019-01-24T08:56:39.476Z,23.13
2019-01-24T08:59:09.160Z,22.47
2019-01-24T09:01:38.835Z,23.43
2019-01-24T09:04:08.822Z,23.02
2019-01-24T09:06:38.496Z,21.80
2019-01-24T09:09:09.558Z,21.93
2019-01-24T09:11:39.227Z,21.90
2019-01-24T09:14:08.908Z,22.40
2019-01-24T09:16:38.588Z,23.07
2019-01-24T09:19:08.281Z,22.27
2019-01-24T09:21:37.948Z,21.50
2019-01-24T09:24:07.736Z,22.02
2019-01-24T09:26:37.413Z,22.10
2019-01-24T09:29:07.109Z,22.77
2019-01-24T09:31:37.151Z,23.33
2019-01-24T09:34:06.838Z,23.13
2019-01-24T09:36:36.516Z,23.13
2019-01-24T09:39:08.317Z,20.80
2019-01-24T09:41:37.996Z,21.12
2019-01-24T09:44:07.685Z,21.73
2019-01-24T09:46:37.439Z,22.27
2019-01-24T09:49:07.460Z,20.93
2019-01-24T09:51:37.456Z,21.23
2019-01-24T09:54:07.240Z,21.17
2019-01-24T09:56:36.908Z,21.20
2019-01-24T09:59:06.742Z,20.97
2019-01-24T10:01:36.720Z,20.77
2019-01-24T10:04:06.417Z,19.10
2019-01-24T10:06:36.557Z,20.60
2019-01-24T10:09:08.273Z,20.40
2019-01-24T10:11:38.022Z,20.30
2019-01-24T10:14:07.791Z,21.37
2019-01-24T10:16:38.003Z,20.08
2019-01-24T10:19:07.696Z,20.40
2019-01-24T10:21:37.378Z,20.62
2019-01-24T10:24:07.481Z,19.40
2019-01-24T10:26:37.160Z,20.10
2019-01-24T10:29:06.845Z,19.10
2019-01-24T10:31:36.520Z,19.87
2019-01-24T10:34:07.631Z,19.33
2019-01-24T10:36:43.014Z,19.00
2019-01-24T10:39:09.599Z,21.47
2019-01-24T10:41:39.279Z,19.75
2019-01-24T10:44:09.362Z,18.23
2019-01-24T10:46:39.040Z,19.83
2019-01-24T10:49:08.790Z,20.10
2019-01-24T10:51:38.475Z,18.55
2019-01-24T10:54:08.151Z,20.73
2019-01-24T10:56:38.193Z,20.30
2019-01-24T10:59:08.061Z,18.60
2019-01-24T11:01:37.736Z,18.05
2019-01-24T11:04:07.666Z,21.13
2019-01-24T11:06:37.342Z,20.90
2019-01-24T11:09:09.305Z,19.67
2019-01-24T11:11:39.057Z,21.07
2019-01-24T11:14:08.928Z,20.02
2019-01-24T11:16:38.979Z,20.17
2019-01-24T11:19:08.667Z,19.57
2019-01-24T11:21:38.674Z,18.95
2019-01-24T11:24:08.872Z,18.90
2019-01-24T11:26:38.613Z,19.97
2019-01-24T11:29:08.373Z,20.07
2019-01-24T11:31:38.069Z,18.63
2019-01-24T11:34:07.834Z,19.03
2019-01-24T11:36:37.520Z,20.37
2019-01-24T11:39:08.132Z,19.33
2019-01-24T11:41:37.804Z,19.37
2019-01-24T11:44:07.492Z,20.03
2019-01-24T11:46:37.173Z,20.53
2019-01-24T11:49:06.860Z,19.53
2019-01-24T11:51:36.532Z,22.00
2019-01-24T11:54:06.238Z,19.73
2019-01-24T11:56:35.910Z,19.17
2019-01-24T11:59:05.776Z,20.43
2019-01-24T12:01:35.722Z,20.97
2019-01-24T12:04:05.945Z,20.10
2019-01-24T12:06:35.630Z,19.10
2019-01-24T12:09:08.797Z,19.80
2019-01-24T12:11:38.618Z,19.73
2019-01-24T12:14:08.312Z,19.30
2019-01-24T12:16:38.061Z,18.93
2019-01-24T12:19:07.753Z,18.57
2019-01-24T12:21:37.776Z,21.02
2019-01-24T12:24:07.921Z,19.50
2019-01-24T12:26:37.598Z,21.23
2019-01-24T12:29:07.648Z,19.97
2019-01-24T12:31:37.329Z,19.03
2019-01-24T12:34:07.361Z,20.10
2019-01-24T12:36:37.380Z,19.50
2019-01-24T12:39:09.618Z,21.53
2019-01-24T12:41:39.441Z,20.48
2019-01-24T12:44:09.380Z,20.50
2019-01-24T12:46:40.032Z,20.80
2019-01-24T12:49:09.735Z,20.37
2019-01-24T12:51:39.684Z,21.37
2019-01-24T12:54:09.666Z,21.12
2019-01-24T12:56:40.364Z,21.50
2019-01-24T12:59:10.104Z,22.17
2019-01-24T13:01:40.196Z,20.07
2019-01-24T13:04:10.318Z,21.17
2019-01-24T13:06:40.332Z,21.90
2019-01-24T13:09:10.275Z,21.87
2019-01-24T13:11:39.945Z,23.27
2019-01-24T13:14:09.871Z,22.82
2019-01-24T13:16:39.554Z,24.20
2019-01-24T13:19:09.249Z,24.47
2019-01-24T13:21:39.085Z,25.83
2019-01-24T13:24:08.921Z,25.77
2019-01-24T13:26:38.886Z,28.42
2019-01-24T13:29:08.894Z,28.12
2019-01-24T13:31:39.537Z,28.63
2019-01-24T13:34:09.213Z,28.50
2019-01-24T13:36:39.180Z,27.87
2019-01-24T13:39:11.315Z,27.25
2019-01-24T13:41:42.521Z,28.50
2019-01-24T13:44:13.557Z,26.17
2019-01-24T13:46:43.207Z,28.40
2019-01-24T13:49:12.895Z,26.23
2019-01-24T13:51:42.571Z,25.60
2019-01-24T13:54:12.568Z,27.25
2019-01-24T13:56:42.486Z,25.57
2019-01-24T13:59:12.497Z,25.60
2019-01-24T14:01:42.507Z,24.33
2019-01-24T14:04:25.720Z,25.67
2019-01-24T14:06:55.407Z,25.80
2019-01-24T14:09:25.380Z,26.80
2019-01-24T14:11:55.099Z,24.60
2019-01-24T14:14:25.081Z,25.77
2019-01-24T14:16:55.732Z,24.37
2019-01-24T14:19:25.411Z,25.10
2019-01-24T14:21:55.094Z,26.10
2019-01-24T14:24:26.087Z,25.33
2019-01-24T14:26:55.871Z,25.43
2019-01-24T14:29:25.664Z,28.02
2019-01-24T14:31:55.444Z,27.03
2019-01-24T14:34:25.621Z,27.57
2019-01-24T14:36:55.607Z,29.47
2019-01-24T14:39:25.766Z,29.12
2019-01-24T14:41:56.676Z,28.77
2019-01-24T14:44:28.145Z,29.23
2019-01-24T14:46:59.008Z,30.55
2019-01-24T14:49:29.806Z,28.95
2019-01-24T14:51:59.495Z,28.83
2019-01-24T14:54:29.171Z,28.43
2019-01-24T14:56:58.857Z,28.83
2019-01-24T14:59:28.776Z,27.25
2019-01-24T15:01:58.560Z,28.40
2019-01-24T15:04:28.322Z,27.47
2019-01-24T15:06:58.317Z,25.73
2019-01-24T15:09:28.047Z,27.73
2019-01-24T15:11:58.170Z,26.67
2019-01-24T15:14:28.240Z,26.97
2019-01-24T15:16:58.164Z,26.17
2019-01-24T15:19:27.929Z,27.02
2019-01-24T15:21:57.792Z,26.05
2019-01-24T15:24:28.033Z,25.80
2019-01-24T15:26:57.903Z,26.43
2019-01-24T15:29:27.815Z,26.62
2019-01-24T15:31:58.043Z,25.33
2019-01-24T15:34:27.841Z,25.80
2019-01-24T15:36:57.516Z,23.60
2019-01-24T15:39:27.340Z,24.72
2019-01-24T15:41:57.463Z,23.90
2019-01-24T15:44:27.373Z,25.53
2019-01-24T15:46:57.079Z,23.53
2019-01-24T15:49:27.012Z,25.97
2019-01-24T15:51:57.028Z,24.97
2019-01-24T15:54:26.694Z,24.87
2019-01-24T15:56:56.366Z,24.33
2019-01-24T15:59:26.113Z,25.00
2019-01-24T16:01:55.880Z,25.07
2019-01-24T16:04:26.430Z,26.63
2019-01-24T16:06:56.193Z,24.60
2019-01-24T16:09:25.869Z,25.60
2019-01-24T16:11:55.561Z,24.90
2019-01-24T16:14:25.318Z,26.27
2019-01-24T16:16:55.016Z,24.37
2019-01-24T16:19:25.040Z,24.87
2019-01-24T16:21:54.986Z,25.70
2019-01-24T16:24:25.073Z,23.20
2019-01-24T16:26:54.764Z,24.03
2019-01-24T16:29:24.479Z,24.73
2019-01-24T16:31:54.165Z,23.45
2019-01-24T16:34:23.835Z,24.93
2019-01-24T16:36:53.946Z,23.85
2019-01-24T16:39:23.792Z,24.63
2019-01-24T16:41:53.747Z,23.63
2019-01-24T16:44:23.760Z,22.67
2019-01-24T16:46:53.448Z,24.35
2019-01-24T16:49:23.126Z,22.80
2019-01-24T16:51:52.817Z,22.87
2019-01-24T16:54:22.501Z,22.03
2019-01-24T16:56:52.185Z,22.47
2019-01-24T16:59:21.860Z,23.35
2019-01-24T17:01:52.040Z,22.55
2019-01-24T17:04:22.052Z,23.23
2019-01-24T17:06:51.805Z,22.55
2019-01-24T17:09:21.767Z,23.22
2019-01-24T17:11:51.521Z,24.03
2019-01-24T17:14:22.444Z,23.07
2019-01-24T17:16:53.229Z,22.67
2019-01-24T17:19:23.365Z,23.38
2019-01-24T17:21:53.052Z,24.30
2019-01-24T17:24:22.733Z,24.45
2019-01-24T17:26:52.986Z,23.53
2019-01-24T17:29:22.663Z,22.13
2019-01-24T17:31:52.428Z,23.87
2019-01-24T17:34:22.440Z,23.73
2019-01-24T17:36:52.126Z,24.20
2019-01-24T17:39:21.858Z,24.77
2019-01-24T17:41:51.545Z,24.15
2019-01-24T17:44:21.376Z,24.70
2019-01-24T17:46:51.186Z,22.22
2019-01-24T17:49:21.146Z,23.33
2019-01-24T17:51:50.820Z,23.57
2019-01-24T17:54:21.470Z,24.67
2019-01-24T17:56:51.153Z,24.17
2019-01-24T17:59:21.162Z,23.45
2019-01-24T18:01:51.066Z,24.63
2019-01-24T18:04:22.005Z,24.27
2019-01-24T18:06:51.689Z,24.37
2019-01-24T18:09:21.359Z,24.67
2019-01-24T18:11:51.519Z,23.97
2019-01-24T18:14:21.291Z,24.77
2019-01-24T18:16:50.966Z,24.53
2019-01-24T18:19:20.955Z,24.63
2019-01-24T18:21:50.647Z,23.67
2019-01-24T18:24:20.719Z,24.83
2019-01-24T18:26:50.403Z,25.23
2019-01-24T18:29:20.177Z,24.33
2019-01-24T18:31:49.943Z,23.70
2019-01-24T18:34:19.940Z,26.05
2019-01-24T18:36:49.962Z,25.47
2019-01-24T18:39:20.384Z,25.20
2019-01-24T18:41:50.074Z,24.00
2019-01-24T18:44:19.748Z,24.53
2019-01-24T18:46:49.445Z,24.60
2019-01-24T18:49:19.144Z,24.20
2019-01-24T18:51:48.823Z,24.63
2019-01-24T18:54:18.838Z,24.07
2019-01-24T18:56:49.026Z,24.10
2019-01-24T18:59:19.135Z,23.90
2019-01-24T19:01:48.821Z,24.03
2019-01-24T19:04:18.600Z,22.60
2019-01-24T19:06:48.612Z,23.60
2019-01-24T19:09:18.289Z,22.90
2019-01-24T19:11:47.972Z,23.00
2019-01-24T19:14:17.729Z,22.85
2019-01-24T19:16:47.500Z,23.03
2019-01-24T19:19:17.251Z,22.70
2019-01-24T19:21:46.942Z,22.37
2019-01-24T19:24:16.616Z,22.80
2019-01-24T19:26:46.444Z,23.00
2019-01-24T19:29:16.472Z,22.83
2019-01-24T19:31:46.168Z,22.33
2019-01-24T19:34:15.850Z,22.57
2019-01-24T19:36:46.952Z,23.17
2019-01-24T19:39:16.711Z,21.30
2019-01-24T19:41:46.392Z,20.43
2019-01-24T19:44:16.092Z,22.97
2019-01-24T19:46:46.721Z,23.38
2019-01-24T19:49:16.724Z,22.00
2019-01-24T19:51:47.369Z,21.33
2019-01-24T19:54:17.076Z,19.27
2019-01-24T19:56:46.762Z,21.62
2019-01-24T19:59:16.717Z,21.43
2019-01-24T20:01:46.425Z,21.67
2019-01-24T20:04:16.208Z,21.93
2019-01-24T20:06:45.968Z,21.23
2019-01-24T20:09:15.733Z,20.65
2019-01-24T20:11:45.400Z,20.40
2019-01-24T20:14:15.161Z,20.43
2019-01-24T20:16:44.944Z,20.50
2019-01-24T20:19:14.941Z,21.57
2019-01-24T20:21:44.981Z,20.97
2019-01-24T20:24:14.997Z,20.92
2019-01-24T20:26:44.687Z,20.50
2019-01-24T20:29:14.452Z,20.57
2019-01-24T20:31:44.776Z,21.00
2019-01-24T20:34:14.479Z,19.77
2019-01-24T20:36:44.178Z,20.77
2019-01-24T20:39:14.398Z,20.20
2019-01-24T20:41:44.173Z,20.33
2019-01-24T20:44:13.859Z,20.30
2019-01-24T20:46:44.010Z,20.63
2019-01-24T20:49:14.199Z,20.37
2019-01-24T20:51:43.921Z,20.00
2019-01-24T20:54:13.600Z,20.15
2019-01-24T20:56:43.666Z,21.63
2019-01-24T20:59:13.454Z,19.48
2019-01-24T21:01:43.140Z,20.37
2019-01-24T21:04:12.904Z,20.20
2019-01-24T21:06:42.693Z,18.87
2019-01-24T21:09:14.913Z,19.30
2019-01-24T21:11:44.165Z,19.43
2019-01-24T21:14:14.178Z,19.63
2019-01-24T21:16:43.868Z,20.92
2019-01-24T21:19:13.909Z,20.57
2019-01-24T21:21:44.132Z,18.98
2019-01-24T21:24:14.069Z,19.50
2019-01-24T21:26:43.749Z,18.60
2019-01-24T21:29:13.763Z,19.83
2019-01-24T21:31:43.464Z,18.57
2019-01-24T21:34:13.157Z,20.08
2019-01-24T21:36:42.937Z,19.70
2019-01-24T21:39:12.694Z,20.20
2019-01-24T21:41:42.636Z,18.87
2019-01-24T21:44:12.439Z,20.03
2019-01-24T21:46:42.986Z,20.15
2019-01-24T21:49:12.754Z,19.87
2019-01-24T21:51:42.431Z,18.23
2019-01-24T21:54:12.186Z,19.43
2019-01-24T21:56:42.848Z,19.57
2019-01-24T21:59:12.535Z,20.43
2019-01-24T22:01:42.387Z,19.50
2019-01-24T22:04:12.148Z,19.70
2019-01-24T22:06:41.830Z,19.70
2019-01-24T22:09:11.522Z,19.23
2019-01-24T22:11:41.249Z,19.20
2019-01-24T22:14:10.946Z,19.05
2019-01-24T22:16:40.624Z,19.07
2019-01-24T22:19:10.304Z,19.50
2019-01-24T22:21:39.979Z,20.73
2019-01-24T22:24:09.656Z,19.07
2019-01-24T22:26:39.395Z,19.43
2019-01-24T22:29:09.084Z,20.27
2019-01-24T22:31:39.186Z,19.33
2019-01-24T22:34:08.891Z,20.53
2019-01-24T22:36:38.920Z,20.08
2019-01-24T22:39:09.897Z,19.42
2019-01-24T22:41:39.577Z,20.17
2019-01-24T22:44:09.267Z,20.53
2019-01-24T22:46:38.948Z,20.40
2019-01-24T22:49:10.188Z,20.80
2019-01-24T22:51:41.178Z,19.57
2019-01-24T22:54:10.865Z,20.13
2019-01-24T22:56:40.535Z,19.73
2019-01-24T22:59:10.220Z,19.60
2019-01-24T23:01:52.591Z,20.33
2019-01-24T23:04:24.327Z,19.57
2019-01-24T23:06:54.094Z,20.37
2019-01-24T23:09:24.218Z,19.70
2019-01-24T23:11:53.975Z,19.60
2019-01-24T23:14:23.666Z,20.27
2019-01-24T23:16:55.263Z,19.90
2019-01-24T23:19:24.966Z,19.67
2019-01-24T23:21:54.636Z,19.27
2019-01-24T23:24:24.425Z,19.90
2019-01-24T23:26:54.112Z,19.83
2019-01-24T23:29:23.817Z,19.52
2019-01-24T23:31:53.639Z,20.10
2019-01-24T23:34:23.358Z,19.17
2019-01-24T23:36:53.108Z,20.87
2019-01-24T23:39:23.074Z,19.62
2019-01-24T23:41:53.090Z,20.13
2019-01-24T23:44:22.782Z,19.48
2019-01-24T23:46:52.457Z,19.85
2019-01-24T23:49:22.155Z,21.17
2019-01-24T23:51:51.840Z,21.55
2019-01-24T23:54:21.943Z,19.73
2019-01-24T23:56:51.864Z,21.15
2019-01-24T23:59:21.559Z,21.50
